Time;durP1;ratioP1;P1;durP2;ratioP2;P2;SDS_P1;SDS_P2;PMS_P1;PMS_P2;Temp;Humidity;BMP_temperature;BMP_pressure;BME280_temperature;BME280_humidity;BME280_pressure;Samples;Min_cycle;Max_cycle;Signal;HPM_P1;HPM_P2
2022/05/15 00:01:21;;;;;;;12.27;7.70;;;;;;;;;;4391635;32;20590;-87
2022/05/15 00:03:47;;;;;;;13.48;8.07;;;;;;;;;;4391839;32;20588;-85
2022/05/15 00:06:13;;;;;;;9.80;6.97;;;;;;;;;;4378145;32;20609;-86
2022/05/15 00:08:39;;;;;;;16.45;7.87;;;;;;;;;;4391581;32;20202;-90
2022/05/15 00:11:10;;;;;;;12.00;8.02;;;;;;;;;;4391236;32;20189;-85
2022/05/15 00:13:37;;;;;;;15.73;8.40;;;;;;;;;;4378259;32;20610;-90
2022/05/15 00:16:03;;;;;;;15.68;8.80;;;;;;;;;;4391640;32;20564;-87
2022/05/15 00:18:29;;;;;;;12.05;9.23;;;;;;;;;;4391505;32;20653;-89
2022/05/15 00:20:55;;;;;;;14.45;9.45;;;;;;;;;;4391544;32;20194;-84
2022/05/15 00:23:23;;;;;;;19.85;10.25;;;;;;;;;;4391633;32;20286;-88
2022/05/15 00:25:49;;;;;;;26.48;9.80;;;;;;;;;;4377851;32;20616;-84
2022/05/15 00:28:15;;;;;;;14.73;9.60;;;;;;;;;;4391589;32;20555;-89
2022/05/15 00:30:42;;;;;;;16.73;10.32;;;;;;;;;;4391382;32;20258;-85
2022/05/15 00:33:08;;;;;;;14.20;8.88;;;;;;;;;;4391031;32;20627;-87
2022/05/15 00:35:35;;;;;;;11.07;9.00;;;;;;;;;;4391601;32;20508;-87
2022/05/15 00:38:03;;;;;;;14.80;8.10;;;;;;;;;;4391220;32;20698;-89
2022/05/15 00:40:29;;;;;;;11.00;7.82;;;;;;;;;;4391143;32;20641;-88
2022/05/15 00:42:55;;;;;;;14.52;7.35;;;;;;;;;;4390983;32;20587;-88
2022/05/15 00:45:23;;;;;;;12.40;7.62;;;;;;;;;;4377122;32;20318;-90
2022/05/15 00:47:49;;;;;;;12.45;6.65;;;;;;;;;;4390478;32;20604;-86
2022/05/15 00:50:20;;;;;;;9.57;7.10;;;;;;;;;;4390902;32;20592;-87
2022/05/15 00:52:49;;;;;;;8.73;6.87;;;;;;;;;;4390687;32;20629;-87
2022/05/15 00:55:46;;;;;;;10.20;7.82;;;;;;;;;;4391006;32;20622;-92
2022/05/15 00:58:28;;;;;;;9.40;7.70;;;;;;;;;;4378429;32;20606;-89
2022/05/15 01:00:54;;;;;;;9.90;7.45;;;;;;;;;;4390856;32;20591;-85
2022/05/15 01:03:21;;;;;;;9.80;7.30;;;;;;;;;;4376862;32;20295;-87
2022/05/15 01:05:56;;;;;;;12.65;7.55;;;;;;;;;;4390496;32;20615;-91
2022/05/15 01:08:24;;;;;;;14.02;7.05;;;;;;;;;;4377040;32;20313;-88
2022/05/15 01:10:53;;;;;;;17.85;7.55;;;;;;;;;;4392295;32;20596;-88
2022/05/15 01:13:22;;;;;;;11.65;7.35;;;;;;;;;;4391386;32;20220;-88
2022/05/15 01:15:48;;;;;;;8.73;6.90;;;;;;;;;;4377882;32;20224;-86
2022/05/15 01:18:24;;;;;;;8.73;6.60;;;;;;;;;;4376946;32;20217;-89
2022/05/15 01:20:57;;;;;;;11.25;7.18;;;;;;;;;;4390370;32;20603;-86
2022/05/15 01:23:24;;;;;;;11.60;7.62;;;;;;;;;;4376938;32;20578;-88
2022/05/15 01:25:50;;;;;;;17.05;7.90;;;;;;;;;;4390339;32;20645;-87
2022/05/15 01:28:23;;;;;;;8.75;6.95;;;;;;;;;;4390134;32;20202;-90
2022/05/15 01:30:53;;;;;;;9.80;7.05;;;;;;;;;;4390147;32;20619;-84
2022/05/15 01:33:19;;;;;;;13.85;7.55;;;;;;;;;;4390230;32;20648;-85
2022/05/15 01:35:45;;;;;;;11.12;6.28;;;;;;;;;;4390637;32;20599;-88
2022/05/15 01:38:11;;;;;;;11.02;6.82;;;;;;;;;;4390349;32;20657;-87
2022/05/15 01:40:38;;;;;;;9.65;7.18;;;;;;;;;;4376663;32;20635;-88
2022/05/15 01:43:05;;;;;;;10.00;6.70;;;;;;;;;;4390055;32;20727;-88
2022/05/15 01:45:31;;;;;;;10.32;6.10;;;;;;;;;;4376171;32;20635;-90
2022/05/15 01:47:56;;;;;;;8.85;6.90;;;;;;;;;;4389976;32;20247;-87
2022/05/15 01:50:22;;;;;;;10.70;6.87;;;;;;;;;;4390204;32;20225;-87
2022/05/15 01:52:48;;;;;;;11.12;7.20;;;;;;;;;;4389815;32;20248;-91
2022/05/15 01:55:14;;;;;;;8.90;6.47;;;;;;;;;;4390193;32;20300;-86
2022/05/15 01:57:40;;;;;;;10.50;7.12;;;;;;;;;;4376424;32;20276;-88
2022/05/15 02:00:11;;;;;;;7.60;6.78;;;;;;;;;;4390223;32;20197;-86
2022/05/15 02:02:45;;;;;;;11.70;7.70;;;;;;;;;;4394043;32;20271;-85
2022/05/15 02:05:11;;;;;;;10.70;6.97;;;;;;;;;;4377458;32;20665;-84
2022/05/15 02:07:37;;;;;;;9.93;6.20;;;;;;;;;;4390352;32;20266;-87
2022/05/15 02:10:04;;;;;;;8.45;6.95;;;;;;;;;;4377255;32;20559;-89
2022/05/15 02:12:30;;;;;;;12.02;7.25;;;;;;;;;;4390209;32;20724;-84
2022/05/15 02:14:56;;;;;;;7.07;6.10;;;;;;;;;;4390670;32;20202;-86
2022/05/15 02:17:21;;;;;;;10.45;7.20;;;;;;;;;;4393159;32;20292;-86
2022/05/15 02:19:47;;;;;;;13.05;8.13;;;;;;;;;;4393470;32;20265;-90
2022/05/15 02:22:13;;;;;;;12.80;8.18;;;;;;;;;;4393246;32;20221;-87
2022/05/15 02:24:39;;;;;;;11.38;7.55;;;;;;;;;;4393398;32;20681;-90
2022/05/15 02:27:06;;;;;;;12.25;7.93;;;;;;;;;;4379549;32;20294;-83
2022/05/15 02:29:32;;;;;;;13.85;7.55;;;;;;;;;;4392843;32;20641;-86
2022/05/15 02:31:59;;;;;;;9.93;6.97;;;;;;;;;;4393622;32;20639;-85
2022/05/15 02:34:24;;;;;;;7.32;6.45;;;;;;;;;;4392938;32;20600;-87
2022/05/15 02:36:50;;;;;;;8.55;6.45;;;;;;;;;;4392680;32;20285;-86
2022/05/15 02:39:16;;;;;;;8.68;6.10;;;;;;;;;;4393389;32;20190;-88
2022/05/15 02:41:41;;;;;;;10.15;6.95;;;;;;;;;;4392789;32;20249;-88
2022/05/15 02:44:07;;;;;;;8.68;6.37;;;;;;;;;;4393273;32;20225;-88
2022/05/15 02:46:33;;;;;;;11.00;6.43;;;;;;;;;;4392733;32;20205;-87
2022/05/15 02:51:43;;;;;;;6.37;4.78;;;;;;;;;;4392378;32;20209;-85
2022/05/15 02:54:09;;;;;;;6.65;5.45;;;;;;;;;;4392425;32;20222;-88
2022/05/15 02:56:36;;;;;;;5.70;5.10;;;;;;;;;;4392640;32;20573;-86
2022/05/15 02:59:02;;;;;;;10.38;5.50;;;;;;;;;;4393107;32;20697;-90
2022/05/15 03:01:28;;;;;;;8.65;5.97;;;;;;;;;;4392780;32;20251;-85
2022/05/15 03:03:54;;;;;;;7.40;5.45;;;;;;;;;;4392285;32;20244;-87
2022/05/15 03:06:20;;;;;;;9.05;5.78;;;;;;;;;;4392307;32;20276;-92
2022/05/15 03:08:49;;;;;;;7.45;5.97;;;;;;;;;;4392161;32;20579;-85
2022/05/15 03:11:16;;;;;;;7.50;6.07;;;;;;;;;;4378369;32;20570;-85
2022/05/15 03:13:42;;;;;;;10.82;5.90;;;;;;;;;;4378314;32;20720;-91
2022/05/15 03:16:09;;;;;;;15.00;6.25;;;;;;;;;;4392442;32;20206;-90
2022/05/15 03:18:44;;;;;;;6.90;5.25;;;;;;;;;;4392245;32;20636;-85
2022/05/15 03:21:12;;;;;;;6.55;5.80;;;;;;;;;;4392315;32;20575;-89
2022/05/15 03:23:39;;;;;;;6.78;5.82;;;;;;;;;;4391793;32;20738;-84
2022/05/15 03:26:05;;;;;;;11.57;5.15;;;;;;;;;;4392375;32;20583;-87
2022/05/15 03:28:31;;;;;;;9.43;6.47;;;;;;;;;;4377730;32;20694;-87
2022/05/15 03:30:57;;;;;;;10.23;7.00;;;;;;;;;;4392061;32;20293;-84
2022/05/15 03:33:22;;;;;;;8.88;5.50;;;;;;;;;;4378790;32;20273;-87
2022/05/15 03:35:48;;;;;;;8.05;6.12;;;;;;;;;;4392034;32;20190;-84
2022/05/15 03:38:14;;;;;;;9.65;6.68;;;;;;;;;;4391858;32;20214;-87
2022/05/15 03:40:40;;;;;;;9.48;5.95;;;;;;;;;;4391624;32;20193;-85
2022/05/15 03:43:08;;;;;;;13.35;7.32;;;;;;;;;;4377875;32;20297;-89
2022/05/15 03:45:34;;;;;;;19.92;10.45;;;;;;;;;;4391793;32;20616;-87
2022/05/15 03:48:03;;;;;;;13.98;7.82;;;;;;;;;;4391632;32;20629;-87
2022/05/15 03:50:30;;;;;;;11.52;7.62;;;;;;;;;;4391555;32;20645;-86
2022/05/15 03:52:57;;;;;;;10.30;6.05;;;;;;;;;;4377753;32;20653;-85
2022/05/15 03:55:23;;;;;;;8.88;5.97;;;;;;;;;;4391445;32;20221;-85
2022/05/15 03:57:55;;;;;;;8.55;5.43;;;;;;;;;;4391391;32;20206;-86
2022/05/15 04:00:21;;;;;;;7.60;5.35;;;;;;;;;;4379278;32;20773;-87
2022/05/15 04:02:47;;;;;;;6.65;5.30;;;;;;;;;;4392212;32;20595;-85
2022/05/15 04:05:13;;;;;;;6.35;4.57;;;;;;;;;;4379194;32;20252;-86
2022/05/15 04:07:44;;;;;;;6.12;4.93;;;;;;;;;;4393478;32;20313;-89
2022/05/15 04:10:11;;;;;;;5.28;4.78;;;;;;;;;;4400200;32;20658;-92
2022/05/15 04:12:37;;;;;;;6.72;3.75;;;;;;;;;;4380295;32;20644;-91
2022/05/15 04:15:03;;;;;;;7.75;5.30;;;;;;;;;;4381053;32;20289;-91
2022/05/15 04:17:29;;;;;;;5.32;3.97;;;;;;;;;;4396704;32;20630;-92
2022/05/15 04:19:54;;;;;;;5.72;4.85;;;;;;;;;;4402267;32;20233;-89
2022/05/15 04:22:20;;;;;;;5.95;4.65;;;;;;;;;;4398850;32;20186;-89
2022/05/15 04:24:46;;;;;;;5.87;4.90;;;;;;;;;;4396402;32;20269;-90
2022/05/15 04:27:12;;;;;;;6.50;4.35;;;;;;;;;;4394128;32;20226;-90
2022/05/15 04:29:38;;;;;;;5.90;4.75;;;;;;;;;;4405130;32;20223;-93
2022/05/15 04:32:04;;;;;;;6.97;5.43;;;;;;;;;;4405488;32;20190;-88
2022/05/15 04:34:30;;;;;;;5.15;4.55;;;;;;;;;;4405268;32;20283;-87
2022/05/15 04:36:56;;;;;;;6.87;4.75;;;;;;;;;;4405334;32;20247;-86
2022/05/15 04:39:22;;;;;;;5.40;4.87;;;;;;;;;;4390643;32;20443;-91
2022/05/15 04:41:48;;;;;;;8.30;5.75;;;;;;;;;;4397109;32;20470;-90
2022/05/15 04:44:14;;;;;;;6.07;4.87;;;;;;;;;;4391555;32;20672;-89
2022/05/15 04:46:40;;;;;;;5.15;4.60;;;;;;;;;;4391821;32;20619;-90
2022/05/15 04:49:06;;;;;;;5.95;5.35;;;;;;;;;;4391800;32;20626;-86
2022/05/15 04:51:33;;;;;;;6.72;5.45;;;;;;;;;;4395098;32;20595;-87
2022/05/15 04:53:59;;;;;;;10.07;5.72;;;;;;;;;;4395750;32;20561;-87
2022/05/15 04:56:25;;;;;;;8.20;5.50;;;;;;;;;;4396959;32;20202;-87
2022/05/15 04:58:51;;;;;;;13.32;7.03;;;;;;;;;;4394875;32;20247;-86
2022/05/15 05:01:18;;;;;;;14.82;6.25;;;;;;;;;;4377610;32;20712;-88
2022/05/15 05:03:44;;;;;;;8.35;5.35;;;;;;;;;;4391693;32;20674;-84
2022/05/15 05:06:13;;;;;;;6.47;5.60;;;;;;;;;;4377454;32;20684;-86
2022/05/15 05:08:38;;;;;;;6.05;5.18;;;;;;;;;;4376856;32;20273;-87
2022/05/15 05:11:04;;;;;;;7.97;5.32;;;;;;;;;;4390845;32;20266;-88
2022/05/15 05:13:30;;;;;;;6.82;5.32;;;;;;;;;;4390410;32;20556;-86
2022/05/15 05:15:56;;;;;;;8.85;4.50;;;;;;;;;;4390694;32;20418;-90
2022/05/15 05:18:23;;;;;;;11.73;5.28;;;;;;;;;;4377048;32;20229;-86
2022/05/15 05:20:49;;;;;;;7.03;4.35;;;;;;;;;;4390191;32;20637;-88
2022/05/15 05:23:14;;;;;;;5.55;4.43;;;;;;;;;;4391136;32;20228;-91
2022/05/15 05:25:40;;;;;;;6.10;4.68;;;;;;;;;;4390605;32;20226;-87
2022/05/15 05:28:07;;;;;;;5.70;4.93;;;;;;;;;;4376923;32;20562;-89
2022/05/15 05:30:33;;;;;;;6.35;4.10;;;;;;;;;;4376523;32;20609;-89
2022/05/15 05:32:58;;;;;;;7.30;5.18;;;;;;;;;;4390409;32;20599;-88
2022/05/15 05:35:29;;;;;;;4.93;3.65;;;;;;;;;;4390822;32;20302;-86
2022/05/15 05:37:55;;;;;;;8.93;4.07;;;;;;;;;;4390713;32;20186;-87
2022/05/15 05:40:21;;;;;;;8.18;4.68;;;;;;;;;;4376702;32;20559;-86
2022/05/15 05:42:47;;;;;;;7.22;4.95;;;;;;;;;;4390222;32;20611;-89
2022/05/15 05:45:13;;;;;;;4.82;3.87;;;;;;;;;;4390026;32;20279;-83
2022/05/15 05:47:39;;;;;;;4.37;3.85;;;;;;;;;;4390124;32;20584;-88
2022/05/15 05:50:10;;;;;;;5.05;4.30;;;;;;;;;;4391060;32;20588;-87
2022/05/15 05:52:38;;;;;;;6.55;4.37;;;;;;;;;;4394898;32;20631;-88
2022/05/15 05:55:06;;;;;;;10.82;5.07;;;;;;;;;;4381039;32;20723;-86
2022/05/15 05:57:31;;;;;;;7.18;4.60;;;;;;;;;;4395348;32;20670;-85
2022/05/15 05:59:57;;;;;;;6.65;5.50;;;;;;;;;;4381109;32;20233;-85
2022/05/15 06:02:25;;;;;;;6.37;4.62;;;;;;;;;;4397732;32;20224;-91
2022/05/15 06:04:51;;;;;;;5.82;4.68;;;;;;;;;;4381310;32;20551;-87
2022/05/15 06:07:23;;;;;;;4.80;4.22;;;;;;;;;;4381160;32;20225;-89
2022/05/15 06:09:50;;;;;;;6.07;5.10;;;;;;;;;;4381295;32;20661;-88
2022/05/15 06:12:18;;;;;;;9.07;4.70;;;;;;;;;;4381435;32;20560;-87
2022/05/15 06:14:44;;;;;;;6.37;5.20;;;;;;;;;;4395041;32;20564;-88
2022/05/15 06:17:10;;;;;;;8.65;5.40;;;;;;;;;;4394700;32;20255;-87
2022/05/15 06:19:36;;;;;;;5.22;4.68;;;;;;;;;;4395082;32;20229;-87
2022/05/15 06:22:02;;;;;;;13.50;5.90;;;;;;;;;;4393751;32;20362;-86
2022/05/15 06:24:28;;;;;;;6.62;5.93;;;;;;;;;;4394837;32;20236;-88
2022/05/15 06:26:55;;;;;;;6.43;5.25;;;;;;;;;;4394543;32;20221;-87
2022/05/15 06:29:21;;;;;;;7.85;5.50;;;;;;;;;;4395013;32;20607;-89
2022/05/15 06:31:46;;;;;;;7.03;5.07;;;;;;;;;;4394969;32;20643;-87
2022/05/15 06:34:14;;;;;;;11.23;5.47;;;;;;;;;;4381206;32;20226;-86
2022/05/15 06:36:40;;;;;;;6.32;5.05;;;;;;;;;;4394716;32;20217;-86
2022/05/15 06:39:06;;;;;;;5.93;4.87;;;;;;;;;;4395086;32;20640;-87
2022/05/15 06:41:32;;;;;;;6.72;4.93;;;;;;;;;;4394830;32;20255;-86
2022/05/15 06:43:58;;;;;;;10.32;5.50;;;;;;;;;;4381016;32;20249;-93
2022/05/15 06:46:24;;;;;;;6.15;5.25;;;;;;;;;;4395279;32;20218;-83
2022/05/15 06:48:49;;;;;;;8.63;5.30;;;;;;;;;;4394848;32;20203;-86
2022/05/15 06:51:16;;;;;;;8.63;4.65;;;;;;;;;;4381209;32;20233;-87
2022/05/15 06:53:47;;;;;;;4.93;4.40;;;;;;;;;;4394600;32;20552;-86
2022/05/15 06:58:57;;;;;;;5.32;4.78;;;;;;;;;;4394747;32;20547;-88
2022/05/15 07:01:23;;;;;;;7.05;5.68;;;;;;;;;;4393535;32;20242;-86
2022/05/15 07:03:49;;;;;;;7.93;5.00;;;;;;;;;;4392411;32;20232;-89
2022/05/15 07:06:15;;;;;;;10.55;6.28;;;;;;;;;;4378674;32;20295;-89
2022/05/15 07:08:41;;;;;;;9.93;6.87;;;;;;;;;;4393586;32;20487;-90
2022/05/15 07:11:07;;;;;;;7.87;5.85;;;;;;;;;;4394240;32;20607;-90
2022/05/15 07:13:33;;;;;;;16.05;6.53;;;;;;;;;;4393438;32;20224;-89
2022/05/15 07:16:00;;;;;;;7.55;5.32;;;;;;;;;;4392644;32;20573;-91
2022/05/15 07:18:25;;;;;;;8.60;6.07;;;;;;;;;;4392634;32;20551;-88
2022/05/15 07:20:52;;;;;;;7.53;6.43;;;;;;;;;;4392492;32;20356;-88
2022/05/15 07:23:18;;;;;;;8.73;6.37;;;;;;;;;;4392255;32;20600;-89
2022/05/15 07:25:44;;;;;;;7.93;6.12;;;;;;;;;;4392283;32;20217;-88
2022/05/15 07:28:12;;;;;;;8.38;5.90;;;;;;;;;;4391882;32;20216;-80
2022/05/15 07:30:39;;;;;;;9.90;5.90;;;;;;;;;;4391738;32;20736;-88
2022/05/15 07:33:05;;;;;;;8.48;6.37;;;;;;;;;;4378376;32;20225;-89
2022/05/15 07:35:31;;;;;;;6.70;5.97;;;;;;;;;;4391857;32;20733;-87
2022/05/15 07:37:57;;;;;;;13.70;6.00;;;;;;;;;;4392614;32;20246;-88
2022/05/15 07:40:23;;;;;;;7.37;6.57;;;;;;;;;;4396855;32;20248;-85
2022/05/15 07:42:48;;;;;;;9.40;6.50;;;;;;;;;;4392694;32;20273;-87
2022/05/15 07:45:15;;;;;;;11.30;6.70;;;;;;;;;;4391797;32;20244;-88
2022/05/15 07:47:42;;;;;;;11.82;6.60;;;;;;;;;;4378279;32;20632;-84
2022/05/15 07:50:08;;;;;;;11.12;6.97;;;;;;;;;;4378548;32;20545;-86
2022/05/15 07:52:34;;;;;;;12.43;5.93;;;;;;;;;;4392661;32;20572;-85
2022/05/15 07:55:01;;;;;;;8.77;6.15;;;;;;;;;;4378681;32;20633;-84
2022/05/15 07:57:27;;;;;;;6.35;5.53;;;;;;;;;;4391959;32;20541;-84
2022/05/15 07:59:53;;;;;;;11.12;6.97;;;;;;;;;;4391826;32;20568;-83
2022/05/15 08:02:20;;;;;;;9.45;6.15;;;;;;;;;;4391854;32;20216;-84
2022/05/15 08:10:14;;;;;;;7.90;5.85;;;;;;;;;;4392601;32;20236;-83
2022/05/15 08:12:40;;;;;;;6.55;5.07;;;;;;;;;;4391843;32;20540;-81
2022/05/15 08:15:07;;;;;;;29.65;5.47;;;;;;;;;;4391856;32;20189;-86
2022/05/15 08:17:34;;;;;;;8.23;4.72;;;;;;;;;;4393313;32;20650;-86
2022/05/15 08:25:27;;;;;;;9.77;4.75;;;;;;;;;;4391120;32;20673;-87
2022/05/15 08:27:54;;;;;;;6.60;4.00;;;;;;;;;;4377482;32;20225;-86
2022/05/15 08:30:20;;;;;;;5.07;3.35;;;;;;;;;;4391811;32;20687;-90
2022/05/15 08:32:47;;;;;;;4.00;2.67;;;;;;;;;;4392013;32;20638;-92
2022/05/15 08:35:13;;;;;;;4.37;3.00;;;;;;;;;;4380253;32;20563;-91
2022/05/15 08:37:40;;;;;;;3.05;2.42;;;;;;;;;;4392479;32;20493;-92
2022/05/15 08:40:06;;;;;;;5.50;2.90;;;;;;;;;;4392786;32;20621;-89
2022/05/15 08:42:45;;;;;;;8.30;3.25;;;;;;;;;;4392812;32;20579;-83
2022/05/15 08:45:14;;;;;;;12.75;2.50;;;;;;;;;;4392571;32;20287;-87
2022/05/15 08:47:44;;;;;;;3.83;2.03;;;;;;;;;;4393421;32;20662;-96
2022/05/15 08:50:17;;;;;;;4.93;2.62;;;;;;;;;;4393000;32;20633;-95
2022/05/15 08:53:04;;;;;;;3.15;2.67;;;;;;;;;;4394168;32;20565;-96
2022/05/15 08:55:42;;;;;;;4.00;2.78;;;;;;;;;;4380515;32;20613;-95
2022/05/15 08:58:27;;;;;;;4.40;2.17;;;;;;;;;;4392864;32;20215;-93
2022/05/15 09:00:54;;;;;;;3.95;2.22;;;;;;;;;;4390561;32;20650;-92
2022/05/15 09:03:28;;;;;;;6.05;1.80;;;;;;;;;;4393177;32;20177;-96
2022/05/15 09:06:28;;;;;;;3.30;2.25;;;;;;;;;;4382679;32;20596;-96
2022/05/15 09:09:31;;;;;;;2.20;2.00;;;;;;;;;;4382371;32;20555;-96
2022/05/15 09:12:20;;;;;;;3.92;1.90;;;;;;;;;;4378344;32;20524;-92
2022/05/15 09:15:29;;;;;;;13.38;2.33;;;;;;;;;;4377491;32;20610;-86
2022/05/15 09:18:00;;;;;;;5.45;2.12;;;;;;;;;;4330154;33;20541;-88
2022/05/15 09:20:26;;;;;;;5.87;2.15;;;;;;;;;;4317677;33;20620;-89
2022/05/15 09:23:05;;;;;;;7.87;2.35;;;;;;;;;;4362762;32;20205;-90
2022/05/15 09:25:38;;;;;;;7.45;2.45;;;;;;;;;;4364811;32;20653;-87
2022/05/15 09:28:10;;;;;;;6.80;2.45;;;;;;;;;;4391681;32;20216;-88
2022/05/15 09:30:42;;;;;;;4.53;2.40;;;;;;;;;;4390456;32;20655;-87
2022/05/15 09:33:24;;;;;;;5.82;2.40;;;;;;;;;;4391023;32;20641;-90
2022/05/15 09:35:50;;;;;;;5.07;2.62;;;;;;;;;;4377330;32;20588;-90
2022/05/15 09:38:28;;;;;;;3.80;1.80;;;;;;;;;;4390651;32;20186;-88
2022/05/15 09:43:55;;;;;;;11.45;1.92;;;;;;;;;;4390755;32;20198;-90
2022/05/15 09:46:25;;;;;;;4.47;2.22;;;;;;;;;;4367337;32;20749;-93
2022/05/15 09:49:07;;;;;;;7.43;1.95;;;;;;;;;;4393120;32;20587;-92
2022/05/15 09:51:48;;;;;;;2.45;2.12;;;;;;;;;;4392380;32;20205;-90
2022/05/15 09:54:38;;;;;;;8.13;2.15;;;;;;;;;;4394028;32;20568;-96
2022/05/15 09:57:16;;;;;;;10.00;2.60;;;;;;;;;;4399787;32;20222;-92
2022/05/15 09:59:43;;;;;;;4.97;1.95;;;;;;;;;;4399985;32;20669;-95
2022/05/15 10:02:27;;;;;;;3.92;2.12;;;;;;;;;;4382458;32;20626;-96
2022/05/15 10:04:54;;;;;;;3.75;1.95;;;;;;;;;;4370883;32;20599;-96
2022/05/15 10:07:31;;;;;;;3.90;2.25;;;;;;;;;;4394815;32;20675;-95
2022/05/15 10:10:17;;;;;;;4.18;2.20;;;;;;;;;;4380538;32;20270;-94
2022/05/15 10:12:47;;;;;;;7.15;2.42;;;;;;;;;;4379333;32;20229;-94
2022/05/15 10:15:15;;;;;;;5.28;1.75;;;;;;;;;;4378501;32;20533;-92
2022/05/15 10:17:57;;;;;;;6.93;2.53;;;;;;;;;;4378890;32;20607;-91
2022/05/15 10:20:31;;;;;;;6.62;1.98;;;;;;;;;;4389944;32;20593;-92
2022/05/15 10:23:18;;;;;;;6.45;2.00;;;;;;;;;;4392743;32;20531;-95
2022/05/15 10:25:53;;;;;;;17.02;2.08;;;;;;;;;;4391507;32;20555;-93
2022/05/15 10:28:32;;;;;;;2.35;1.58;;;;;;;;;;4376697;32;20551;-92
2022/05/15 10:31:22;;;;;;;3.67;1.90;;;;;;;;;;4391142;32;20656;-92
2022/05/15 10:33:56;;;;;;;6.37;2.10;;;;;;;;;;4390663;32;20551;-92
2022/05/15 10:37:01;;;;;;;2.87;1.62;;;;;;;;;;4391140;32;20334;-92
2022/05/15 10:39:45;;;;;;;4.87;2.30;;;;;;;;;;4393195;32;20236;-94
2022/05/15 10:42:39;;;;;;;6.80;1.60;;;;;;;;;;4393680;32;20803;-93
2022/05/15 10:45:31;;;;;;;6.28;2.25;;;;;;;;;;4395467;32;20593;-93
2022/05/15 10:48:06;;;;;;;6.22;1.58;;;;;;;;;;4393639;32;20520;-95
2022/05/15 10:50:39;;;;;;;7.82;1.77;;;;;;;;;;4393317;32;20687;-94
2022/05/15 10:59:36;;;;;;;3.62;1.70;;;;;;;;;;4393888;32;20197;-92
2022/05/15 11:02:33;;;;;;;3.03;1.33;;;;;;;;;;4393674;32;20706;-92
2022/05/15 11:05:07;;;;;;;4.55;1.20;;;;;;;;;;4392826;32;20535;-92
2022/05/15 11:07:44;;;;;;;2.60;1.42;;;;;;;;;;4392765;32;20551;-92
2022/05/15 11:10:23;;;;;;;4.05;1.33;;;;;;;;;;4393322;32;20610;-92
2022/05/15 11:13:19;;;;;;;3.60;1.40;;;;;;;;;;4378982;32;20563;-92
2022/05/15 11:15:57;;;;;;;4.72;1.83;;;;;;;;;;4393141;32;20601;-92
2022/05/15 11:18:32;;;;;;;11.38;1.40;;;;;;;;;;4393286;32;20178;-92
2022/05/15 11:21:07;;;;;;;3.47;1.77;;;;;;;;;;4392716;32;20504;-90
2022/05/15 11:23:40;;;;;;;2.45;1.48;;;;;;;;;;4379091;32;20531;-90
2022/05/15 11:26:10;;;;;;;2.55;1.73;;;;;;;;;;4379301;32;20569;-92
2022/05/15 11:28:44;;;;;;;1.90;1.30;;;;;;;;;;4393070;32;20583;-93
2022/05/15 11:31:14;;;;;;;7.12;1.95;;;;;;;;;;4379055;32;20214;-91
2022/05/15 11:33:54;;;;;;;4.85;2.08;;;;;;;;;;4393552;32;20622;-90
2022/05/15 11:36:30;;;;;;;5.07;1.83;;;;;;;;;;4379046;32;20617;-91
2022/05/15 11:38:55;;;;;;;4.35;2.05;;;;;;;;;;4393218;32;20625;-92
2022/05/15 11:41:31;;;;;;;4.55;2.15;;;;;;;;;;4392607;32;20305;-92
2022/05/15 11:43:59;;;;;;;1.92;1.30;;;;;;;;;;4392263;32;20194;-93
2022/05/15 11:46:47;;;;;;;4.80;1.73;;;;;;;;;;4392102;32;20716;-92
2022/05/15 11:49:24;;;;;;;8.73;2.08;;;;;;;;;;4391804;32;20595;-93
2022/05/15 11:52:14;;;;;;;2.92;1.80;;;;;;;;;;4392532;32;20540;-93
2022/05/15 11:54:46;;;;;;;4.70;2.00;;;;;;;;;;4392615;32;20641;-92
2022/05/15 11:57:29;;;;;;;5.05;1.73;;;;;;;;;;4378849;32;20658;-89
2022/05/15 11:59:58;;;;;;;3.42;1.65;;;;;;;;;;4393790;32;20206;-92
2022/05/15 12:02:30;;;;;;;1.45;1.00;;;;;;;;;;4392432;32;20588;-87
2022/05/15 12:05:09;;;;;;;3.55;1.37;;;;;;;;;;4391878;32;20580;-86
2022/05/15 12:08:07;;;;;;;3.75;1.42;;;;;;;;;;4391163;32;20649;-87
2022/05/15 12:10:33;;;;;;;2.90;1.83;;;;;;;;;;4377352;32;20591;-87
2022/05/15 12:13:11;;;;;;;5.45;1.67;;;;;;;;;;4391229;32;20213;-87
2022/05/15 12:15:46;;;;;;;2.00;0.93;;;;;;;;;;4392116;32;20718;-85
2022/05/15 12:18:23;;;;;;;4.45;1.20;;;;;;;;;;4392175;32;20661;-85
2022/05/15 12:20:52;;;;;;;2.20;1.33;;;;;;;;;;4391467;32;20595;-87
2022/05/15 12:23:23;;;;;;;3.08;1.23;;;;;;;;;;4391778;32;20596;-88
2022/05/15 12:25:57;;;;;;;3.42;1.62;;;;;;;;;;4377919;32;20648;-86
2022/05/15 12:28:51;;;;;;;4.35;1.60;;;;;;;;;;4391212;32;20535;-86
2022/05/15 12:31:43;;;;;;;6.00;2.03;;;;;;;;;;4390862;32;20237;-87
2022/05/15 12:34:13;;;;;;;6.55;2.15;;;;;;;;;;4377191;32;20520;-88
2022/05/15 12:36:43;;;;;;;3.72;1.67;;;;;;;;;;4390379;32;20548;-87
2022/05/15 12:39:15;;;;;;;3.12;1.62;;;;;;;;;;4390712;32;20619;-86
2022/05/15 12:41:45;;;;;;;4.47;1.80;;;;;;;;;;4391202;32;20665;-87
2022/05/15 12:44:12;;;;;;;4.25;1.50;;;;;;;;;;4391349;32;20614;-87
2022/05/15 12:46:58;;;;;;;2.67;1.85;;;;;;;;;;4377820;32;20646;-83
2022/05/15 12:49:34;;;;;;;5.30;1.90;;;;;;;;;;4391787;32;20568;-82
2022/05/15 12:52:15;;;;;;;3.42;1.20;;;;;;;;;;4391634;32;20615;-86
2022/05/15 12:54:44;;;;;;;4.03;1.90;;;;;;;;;;4378244;32;20669;-88
2022/05/15 12:57:16;;;;;;;7.75;1.95;;;;;;;;;;4391220;32;20524;-84
2022/05/15 12:59:48;;;;;;;2.50;1.58;;;;;;;;;;4390861;32;20307;-88
2022/05/15 13:02:20;;;;;;;5.50;1.85;;;;;;;;;;4391129;32;20585;-87
2022/05/15 13:04:49;;;;;;;5.72;1.70;;;;;;;;;;4391788;32;20600;-86
2022/05/15 13:07:15;;;;;;;11.07;1.73;;;;;;;;;;4391080;32;20573;-83
2022/05/15 13:09:41;;;;;;;2.05;1.75;;;;;;;;;;4392012;32;20194;-82
2022/05/15 13:12:15;;;;;;;4.30;1.25;;;;;;;;;;4392214;32;20239;-88
2022/05/15 13:14:46;;;;;;;7.55;1.60;;;;;;;;;;4392117;32;20178;-85
2022/05/15 13:17:24;;;;;;;7.97;1.58;;;;;;;;;;4392719;32;20831;-88
2022/05/15 13:19:52;;;;;;;1.77;1.40;;;;;;;;;;4386368;32;20601;-89
2022/05/15 13:22:27;;;;;;;3.80;1.50;;;;;;;;;;4404167;32;20305;-84
2022/05/15 13:24:59;;;;;;;1.58;1.17;;;;;;;;;;4404543;32;20253;-88
2022/05/15 13:27:26;;;;;;;1.20;1.10;;;;;;;;;;4404082;32;20239;-88
2022/05/15 13:29:53;;;;;;;2.95;1.55;;;;;;;;;;4403954;32;20273;-87
2022/05/15 13:32:19;;;;;;;5.75;2.25;;;;;;;;;;4404158;32;20190;-85
2022/05/15 13:34:47;;;;;;;4.85;1.77;;;;;;;;;;4402019;32;20576;-85
2022/05/15 13:37:33;;;;;;;7.62;1.90;;;;;;;;;;4402193;32;20239;-84
2022/05/15 13:46:18;;;;;;;3.67;1.50;;;;;;;;;;4393631;32;20253;-85
2022/05/15 13:49:06;;;;;;;3.47;1.42;;;;;;;;;;4348745;32;20685;-87
2022/05/15 13:51:37;;;;;;;5.28;1.40;;;;;;;;;;4376794;32;20728;-86
2022/05/15 13:54:22;;;;;;;1.83;1.42;;;;;;;;;;4390885;32;20182;-86
2022/05/15 13:57:03;;;;;;;3.17;1.33;;;;;;;;;;4377443;32;20597;-88
2022/05/15 13:59:43;;;;;;;4.53;1.60;;;;;;;;;;4391342;32;20566;-87
2022/05/15 14:02:25;;;;;;;3.10;1.60;;;;;;;;;;4392785;32;20654;-87
2022/05/15 14:05:15;;;;;;;6.72;1.60;;;;;;;;;;4391315;32;20542;-88
2022/05/15 14:07:43;;;;;;;2.55;1.37;;;;;;;;;;4390586;32;20736;-86
2022/05/15 14:10:14;;;;;;;10.13;2.08;;;;;;;;;;4390432;32;20724;-87
2022/05/15 14:12:58;;;;;;;6.60;1.65;;;;;;;;;;4392864;32;20592;-87
2022/05/15 14:15:45;;;;;;;2.62;1.65;;;;;;;;;;4380289;32;20566;-88
2022/05/15 14:18:20;;;;;;;7.72;1.62;;;;;;;;;;4394047;32;20721;-88
2022/05/15 14:20:51;;;;;;;2.72;1.50;;;;;;;;;;4393916;32;20604;-88
2022/05/15 14:23:19;;;;;;;6.07;2.03;;;;;;;;;;4394312;32;20579;-88
2022/05/15 14:25:46;;;;;;;4.20;1.70;;;;;;;;;;4393654;32;20673;-84
2022/05/15 14:28:14;;;;;;;2.50;1.62;;;;;;;;;;4393648;32;20748;-88
2022/05/15 14:30:43;;;;;;;3.17;1.48;;;;;;;;;;4393240;32;20670;-87
2022/05/15 14:33:10;;;;;;;7.62;1.70;;;;;;;;;;4379119;32;20692;-87
2022/05/15 14:35:50;;;;;;;4.78;2.20;;;;;;;;;;4393029;32;20708;-87
2022/05/15 14:38:17;;;;;;;4.45;1.40;;;;;;;;;;4392631;32;20592;-86
2022/05/15 14:40:42;;;;;;;15.70;3.22;;;;;;;;;;4392858;32;20549;-87
2022/05/15 14:43:08;;;;;;;6.68;1.50;;;;;;;;;;4392736;32;20260;-88
2022/05/15 14:45:45;;;;;;;21.90;4.80;;;;;;;;;;4379097;32;20214;-88
2022/05/15 14:48:17;;;;;;;5.97;1.85;;;;;;;;;;4392826;32;20234;-88
2022/05/15 14:50:44;;;;;;;48.08;9.23;;;;;;;;;;4392893;32;20631;-88
2022/05/15 14:53:11;;;;;;;8.18;2.67;;;;;;;;;;4379139;32;20617;-87
2022/05/15 14:58:21;;;;;;;9.40;1.73;;;;;;;;;;4392990;32;20236;-88
2022/05/15 15:00:47;;;;;;;4.78;1.70;;;;;;;;;;4392307;32;20681;-88
2022/05/15 15:03:13;;;;;;;7.28;2.10;;;;;;;;;;4392632;32;20245;-87
2022/05/15 15:05:44;;;;;;;3.17;1.62;;;;;;;;;;4392530;32;20214;-87
2022/05/15 15:08:18;;;;;;;4.03;1.30;;;;;;;;;;4392616;32;20620;-88
2022/05/15 15:10:45;;;;;;;2.40;1.52;;;;;;;;;;4392916;32;20629;-87
2022/05/15 15:13:12;;;;;;;2.30;1.50;;;;;;;;;;4392792;32;20621;-86
2022/05/15 15:15:40;;;;;;;4.00;1.83;;;;;;;;;;4378705;32;20725;-87
2022/05/15 15:18:06;;;;;;;6.97;1.75;;;;;;;;;;4393069;32;20589;-88
2022/05/15 15:20:33;;;;;;;9.57;3.10;;;;;;;;;;4392651;32;20682;-85
2022/05/15 15:22:59;;;;;;;1.70;1.02;;;;;;;;;;4391855;32;20614;-86
2022/05/15 15:25:26;;;;;;;6.28;1.92;;;;;;;;;;4392285;32;20225;-86
2022/05/15 15:27:53;;;;;;;2.95;1.40;;;;;;;;;;4392287;32;20693;-86
2022/05/15 15:30:19;;;;;;;2.75;1.48;;;;;;;;;;4392090;32;20214;-86
2022/05/15 15:32:44;;;;;;;3.42;1.92;;;;;;;;;;4378274;32;20532;-87
2022/05/15 15:35:10;;;;;;;3.83;1.50;;;;;;;;;;4392086;32;20316;-86